Time;durP1;ratioP1;P1;durP2;ratioP2;P2;SDS_P1;SDS_P2;PMS_P1;PMS_P2;Temp;Humidity;BMP_temperature;BMP_pressure;BME280_temperature;BME280_humidity;BME280_pressure;Samples;Min_cycle;Max_cycle;Signal;HPM_P1;HPM_P2
2022/02/07 00:00:04;;;;;;;14.00;5.80;;;;;;;3.49;64.03;97170.85;106105;1274;106923;-72
2022/02/07 00:05:29;;;;;;;12.60;4.90;;;;;;;3.38;64.92;97170.13;106139;1274;95282;-71
2022/02/07 00:08:07;;;;;;;15.30;5.60;;;;;;;3.35;65.55;97161.40;106021;1274;111444;-73
2022/02/07 00:10:41;;;;;;;15.00;5.80;;;;;;;3.29;65.76;97158.83;106058;1274;97909;-74
2022/02/07 00:13:13;;;;;;;16.20;5.90;;;;;;;3.23;66.40;97155.05;106183;1274;107724;-73
2022/02/07 00:15:41;;;;;;;17.30;6.40;;;;;;;3.18;65.97;97146.35;106181;1274;97903;-73
2022/02/07 00:18:09;;;;;;;14.70;5.90;;;;;;;3.14;66.08;97137.48;106216;1274;97899;-71
2022/02/07 00:20:44;;;;;;;;;;;;;;;3.14;66.67;97131.54;106216;1273;111377;-71
2022/02/07 00:23:12;;;;;;;18.80;6.00;;;;;;;3.09;66.75;97132.05;106212;1274;95298;-70
2022/02/07 00:25:40;;;;;;;16.40;5.60;;;;;;;3.09;67.28;97129.30;106192;1274;107855;-70
2022/02/07 00:28:08;;;;;;;15.70;6.00;;;;;;;3.08;67.85;97129.48;106100;1274;97767;-73
2022/02/07 00:30:36;;;;;;;16.70;6.70;;;;;;;3.07;68.05;97126.83;106187;1274;95166;-72
2022/02/07 00:33:05;;;;;;;14.20;5.60;;;;;;;3.05;67.81;97122.91;106157;1274;111418;-71
2022/02/07 00:35:33;;;;;;;18.60;6.20;;;;;;;3.08;68.65;97123.23;106175;1274;98104;-72
2022/02/07 00:38:06;;;;;;;15.80;6.20;;;;;;;3.07;68.98;97124.16;106164;1274;107928;-72
2022/02/07 00:45:59;;;;;;;20.10;7.10;;;;;;;3.00;68.56;97113.34;106185;1274;110466;-72
2022/02/07 00:48:27;;;;;;;18.10;6.90;;;;;;;2.98;69.48;97112.95;106146;1274;97962;-73
2022/02/07 00:50:59;;;;;;;18.70;6.90;;;;;;;2.95;69.23;97107.16;106107;1274;107775;-72
2022/02/07 00:53:33;;;;;;;18.60;7.20;;;;;;;2.95;69.50;97100.33;106101;1274;97963;-74
2022/02/07 00:56:03;;;;;;;20.40;7.90;;;;;;;2.95;69.52;97095.98;106141;1274;97833;-73
2022/02/07 00:58:36;;;;;;;20.00;7.60;;;;;;;2.97;69.98;97089.86;106161;1274;112005;-73
2022/02/07 01:01:10;;;;;;;17.70;7.30;;;;;;;2.99;70.02;97086.05;106150;1274;97972;-74
2022/02/07 01:03:38;;;;;;;17.20;7.30;;;;;;;2.99;69.93;97084.50;106160;1274;107694;-74
2022/02/07 01:06:06;;;;;;;19.80;7.60;;;;;;;3.02;70.35;97075.38;106179;1274;97806;-72
2022/02/07 01:08:47;;;;;;;19.50;7.10;;;;;;;3.04;70.63;97068.18;106246;1274;95206;-73
2022/02/07 01:46:24;;;;;;;21.10;8.60;;;;;;;3.31;70.44;97039.02;106133;1274;97914;-72
2022/02/07 01:54:31;;;;;;;20.30;7.50;;;;;;;3.31;70.50;97030.09;106171;1274;97876;-74
2022/02/07 01:57:15;;;;;;;20.80;7.60;;;;;;;3.32;70.23;97033.55;106149;1274;106728;-73
2022/02/07 01:59:52;;;;;;;20.70;8.60;;;;;;;3.33;70.46;97030.97;106048;1274;95313;-71
2022/02/07 02:02:26;;;;;;;18.00;7.80;;;;;;;3.33;70.23;97027.83;106202;1274;97819;-72
2022/02/07 02:04:57;;;;;;;18.80;8.20;;;;;;;3.34;70.13;97030.94;106179;1274;111250;-73
2022/02/07 02:07:25;;;;;;;20.40;7.60;;;;;;;3.36;70.15;97033.27;106185;1274;95240;-73
2022/02/07 02:09:53;;;;;;;20.10;8.00;;;;;;;3.37;70.38;97030.00;106093;1274;107650;-72
2022/02/07 02:12:28;;;;;;;19.00;7.40;;;;;;;3.39;70.26;97029.48;106004;1277;97844;-73
2022/02/07 02:36:42;;;;;;;17.90;8.20;;;;;;;3.54;69.92;97041.83;106025;1274;106501;-71
2022/02/07 02:47:28;;;;;;;18.00;7.10;;;;;;;3.62;70.02;97040.95;106212;1274;97951;-73
2022/02/07 02:50:08;;;;;;;18.20;7.50;;;;;;;3.62;69.94;97040.94;106169;1274;107836;-74
2022/02/07 02:52:37;;;;;;;20.30;8.00;;;;;;;3.63;70.06;97033.44;106077;1274;97889;-74
2022/02/07 02:55:06;;;;;;;19.10;8.00;;;;;;;3.65;69.93;97034.06;106165;1274;95178;-73
2022/02/07 02:57:34;;;;;;;17.30;7.60;;;;;;;3.66;69.80;97028.70;106030;1274;111473;-73
2022/02/07 03:00:05;;;;;;;19.00;7.80;;;;;;;3.67;69.92;97018.45;106027;1274;95278;-72
2022/02/07 03:02:34;;;;;;;18.60;7.50;;;;;;;3.67;69.98;97011.36;106124;1274;108833;-72
2022/02/07 03:05:05;;;;;;;19.40;7.60;;;;;;;3.68;69.91;97009.10;106155;1274;97982;-73
2022/02/07 03:07:33;;;;;;;17.90;7.10;;;;;;;3.67;70.14;97003.73;106011;1274;97996;-73
2022/02/07 03:10:02;;;;;;;19.10;8.30;;;;;;;3.66;69.99;96998.69;106139;1274;111367;-72
2022/02/07 03:12:45;;;;;;;20.50;8.60;;;;;;;3.63;69.85;96992.65;106022;1274;97999;-71
2022/02/07 03:18:03;;;;;;;21.50;8.60;;;;;;;3.57;69.93;97007.48;106141;1274;97803;-72
2022/02/07 03:20:31;;;;;;;23.50;8.60;;;;;;;3.56;69.78;97014.90;106039;1274;95213;-72
2022/02/07 03:22:59;;;;;;;21.00;8.50;;;;;;;3.53;69.66;97019.33;106130;1274;111175;-71
2022/02/07 03:25:27;;;;;;;20.60;7.60;;;;;;;3.51;70.00;97019.66;106039;1274;97889;-71
2022/02/07 03:27:54;;;;;;;19.90;8.40;;;;;;;3.48;69.93;97016.39;106153;1274;107785;-71
2022/02/07 03:30:22;;;;;;;18.30;7.30;;;;;;;3.45;70.06;97023.64;106056;1274;98602;-71
2022/02/07 03:32:50;;;;;;;18.10;7.60;;;;;;;3.43;70.23;97024.25;105948;1274;179921;-71
2022/02/07 03:35:19;;;;;;;17.90;7.00;;;;;;;3.42;69.92;97030.80;106079;1274;111359;-72
2022/02/07 03:37:49;;;;;;;17.30;7.40;;;;;;;3.44;70.10;97034.74;106100;1274;97967;-72
2022/02/07 03:40:21;;;;;;;20.60;7.30;;;;;;;3.45;70.10;97038.01;106129;1273;107683;-71
2022/02/07 03:42:53;;;;;;;17.90;7.50;;;;;;;3.46;69.87;97044.27;106142;1274;97905;-71
2022/02/07 03:45:21;;;;;;;17.60;7.70;;;;;;;3.46;70.07;97039.86;106161;1274;97461;-72
2022/02/07 03:47:53;;;;;;;18.00;7.50;;;;;;;3.46;70.24;97041.59;106197;1274;111463;-71
2022/02/07 03:50:21;;;;;;;18.80;7.40;;;;;;;3.45;69.87;97041.02;106197;1274;96653;-73
2022/02/07 03:52:52;;;;;;;15.70;6.60;;;;;;;3.43;69.87;97034.98;106220;1274;108838;-72
2022/02/07 03:55:20;;;;;;;16.70;7.30;;;;;;;3.42;69.96;97027.86;106193;1274;97954;-71
2022/02/07 03:57:47;;;;;;;18.90;7.80;;;;;;;3.41;70.05;97019.66;106219;1274;97866;-73
2022/02/07 04:00:16;;;;;;;20.00;7.70;;;;;;;3.40;70.18;97020.85;106160;1274;111325;-69
2022/02/07 04:02:51;;;;;;;17.10;7.10;;;;;;;3.38;70.43;97018.39;106104;1274;97885;-71
2022/02/07 04:07:52;;;;;;;21.10;7.90;;;;;;;3.31;70.19;97003.44;106147;1274;97969;-69
2022/02/07 04:10:22;;;;;;;18.60;8.30;;;;;;;3.28;70.51;97007.55;106207;1273;95853;-70
2022/02/07 04:12:58;;;;;;;18.40;7.70;;;;;;;3.23;70.81;97007.71;106253;1274;111287;-70
2022/02/07 04:15:28;;;;;;;19.80;8.70;;;;;;;3.21;70.77;97014.39;106200;1274;98579;-71
2022/02/07 04:18:01;;;;;;;18.90;8.00;;;;;;;3.19;70.83;97020.48;106063;1274;106840;-71
2022/02/07 04:20:30;;;;;;;19.30;8.00;;;;;;;3.20;70.75;97021.10;106060;1274;97933;-73
2022/02/07 04:22:57;;;;;;;18.70;8.60;;;;;;;3.20;70.76;97010.44;106256;1274;95850;-73
2022/02/07 04:25:25;;;;;;;21.10;8.50;;;;;;;3.19;70.59;97006.27;106217;1274;110992;-74
2022/02/07 04:27:54;;;;;;;20.50;8.80;;;;;;;3.19;70.92;97004.00;106085;1274;95245;-72
2022/02/07 04:30:25;;;;;;;21.70;9.20;;;;;;;3.18;71.19;96994.66;106048;1274;107712;-73
2022/02/07 04:32:53;;;;;;;19.30;8.50;;;;;;;3.14;71.56;96990.21;106179;1273;97894;-71
2022/02/07 04:35:21;;;;;;;20.30;9.00;;;;;;;3.10;71.87;96994.52;106145;1274;95290;-72
2022/02/07 04:37:48;;;;;;;22.30;9.60;;;;;;;3.06;72.00;96997.98;106154;1274;111385;-73
2022/02/07 04:40:21;;;;;;;23.70;10.70;;;;;;;3.01;71.42;97001.70;106152;1273;97949;-72
2022/02/07 04:42:54;;;;;;;21.50;9.90;;;;;;;3.01;71.81;96993.50;106032;1274;107708;-73
2022/02/07 04:45:52;;;;;;;21.30;10.00;;;;;;;3.00;71.87;96994.27;106126;1274;97870;-72
2022/02/07 04:51:14;;;;;;;20.60;9.30;;;;;;;2.98;71.87;97012.23;106146;1274;111467;-69
2022/02/07 05:04:09;;;;;;;22.00;10.80;;;;;;;3.08;71.55;97019.92;106161;1274;111370;-72
2022/02/07 05:14:56;;;;;;;25.10;11.70;;;;;;;3.19;71.77;97039.77;106128;1274;96827;-73
2022/02/07 05:17:32;;;;;;;27.60;13.40;;;;;;;3.21;71.97;97037.13;106208;1274;111533;-72
2022/02/07 05:20:00;;;;;;;25.40;11.80;;;;;;;3.20;71.73;97035.67;106243;1274;97959;-72
2022/02/07 05:22:30;;;;;;;26.10;13.20;;;;;;;3.20;71.72;97041.95;106678;1274;108096;-72
2022/02/07 05:25:06;;;;;;;27.10;13.30;;;;;;;3.21;71.86;97041.87;106185;1274;97963;-72
2022/02/07 05:27:34;;;;;;;32.40;15.80;;;;;;;3.23;71.79;97048.58;106210;1274;97827;-72
2022/02/07 05:30:07;;;;;;;39.70;16.40;;;;;;;3.27;71.96;97048.63;106304;1274;111382;-72
2022/02/07 05:32:35;;;;;;;40.20;17.20;;;;;;;3.30;72.07;97047.54;106200;1274;97923;-71
2022/02/07 05:35:08;;;;;;;35.70;15.60;;;;;;;3.31;71.80;97043.80;106135;1274;107725;-72
2022/02/07 05:37:36;;;;;;;32.00;14.60;;;;;;;3.31;71.55;97047.42;106104;1274;95365;-73
2022/02/07 05:40:21;;;;;;;29.70;13.70;;;;;;;3.33;71.61;97037.16;106263;1274;96041;-74
2022/02/07 05:42:49;;;;;;;30.00;13.80;;;;;;;3.31;71.78;97037.25;106179;1274;111402;-72
2022/02/07 05:45:17;;;;;;;31.20;13.50;;;;;;;3.32;71.77;97047.88;106282;1274;97914;-71
2022/02/07 05:47:45;;;;;;;28.40;12.60;;;;;;;3.34;71.76;97046.00;106258;1274;108736;-73
2022/02/07 05:50:13;;;;;;;26.20;11.20;;;;;;;3.33;71.69;97046.97;106263;1274;96682;-73
2022/02/07 05:52:41;;;;;;;25.50;11.40;;;;;;;3.30;71.97;97048.58;106288;1274;97957;-75
2022/02/07 05:55:15;;;;;;;25.70;12.10;;;;;;;3.26;72.02;97052.73;106262;1274;111391;-73
2022/02/07 05:57:46;;;;;;;23.90;11.60;;;;;;;3.23;72.15;97058.71;106265;1274;98070;-73
2022/02/07 06:00:14;;;;;;;23.70;11.00;;;;;;;3.22;72.07;97058.11;106261;1274;108052;-73
2022/02/07 06:02:47;;;;;;;25.30;10.70;;;;;;;3.25;72.41;97060.15;106186;1274;97886;-74
2022/02/07 06:05:15;;;;;;;24.20;11.00;;;;;;;3.23;72.28;97056.46;106293;1274;95223;-73
2022/02/07 06:07:43;;;;;;;24.20;11.90;;;;;;;3.21;72.18;97056.42;106270;1274;111503;-73
2022/02/07 06:10:10;;;;;;;22.80;10.70;;;;;;;3.22;72.15;97063.15;106252;1274;97849;-72
2022/02/07 06:12:40;;;;;;;24.40;11.20;;;;;;;3.26;72.27;97064.31;106210;1274;107826;-71
2022/02/07 06:15:09;;;;;;;23.30;10.90;;;;;;;3.27;72.18;97061.37;106161;1274;97840;-69
2022/02/07 06:17:38;;;;;;;23.40;9.50;;;;;;;3.30;72.02;97061.17;106083;1274;96887;-71
2022/02/07 06:20:09;;;;;;;24.20;11.10;;;;;;;3.30;72.15;97060.87;106113;1274;110849;-71
2022/02/07 06:22:37;;;;;;;25.40;11.40;;;;;;;3.28;72.14;97056.59;106150;1274;97921;-71
2022/02/07 06:25:05;;;;;;;22.00;11.10;;;;;;;3.29;72.19;97057.06;106116;1274;107779;-71
2022/02/07 06:27:33;;;;;;;23.40;11.40;;;;;;;3.31;72.04;97060.40;106103;1274;97824;-75
2022/02/07 06:30:01;;;;;;;25.10;12.80;;;;;;;3.33;72.22;97068.88;106109;1274;98625;-77
2022/02/07 06:32:29;;;;;;;26.40;11.40;;;;;;;3.33;71.92;97071.30;106149;1274;111415;-80
2022/02/07 06:34:59;;;;;;;25.30;12.60;;;;;;;3.34;72.26;97077.72;106128;1274;97857;-78
2022/02/07 06:37:27;;;;;;;24.80;11.90;;;;;;;3.34;72.04;97081.73;106088;1274;107745;-77
2022/02/07 06:39:55;;;;;;;27.30;12.80;;;;;;;3.36;72.12;97079.27;106078;1274;98346;-76
2022/02/07 06:42:23;;;;;;;25.30;12.60;;;;;;;3.36;72.14;97085.41;106074;1274;98344;-78
2022/02/07 06:44:51;;;;;;;29.70;13.90;;;;;;;3.35;72.06;97084.09;106021;1274;111293;-76
2022/02/07 06:47:19;;;;;;;22.70;11.60;;;;;;;3.34;72.14;97083.98;106093;1274;97898;-76
2022/02/07 06:49:46;;;;;;;24.80;12.20;;;;;;;3.35;72.25;97086.42;106129;1274;107552;-75
2022/02/07 06:52:14;;;;;;;23.70;11.80;;;;;;;3.34;72.17;97095.23;106091;1274;97868;-75
2022/02/07 06:54:45;;;;;;;27.60;12.60;;;;;;;3.35;72.33;97095.00;106065;1274;97878;-77
2022/02/07 06:57:15;;;;;;;24.60;12.50;;;;;;;3.35;72.39;97102.48;106012;1274;111375;-76
2022/02/07 06:59:47;;;;;;;24.80;11.90;;;;;;;3.35;72.47;97101.31;105987;1275;98000;-77
2022/02/07 07:02:25;;;;;;;27.70;12.30;;;;;;;3.34;72.33;97103.31;106007;1274;107538;-76
2022/02/07 07:04:58;;;;;;;27.00;13.30;;;;;;;3.34;72.32;97104.52;106110;1274;97986;-79
2022/02/07 07:07:30;;;;;;;23.10;11.40;;;;;;;3.36;72.37;97107.02;106104;1274;97853;-80
2022/02/07 07:10:00;;;;;;;25.60;12.30;;;;;;;3.36;72.40;97108.94;106095;1274;112306;-79
2022/02/07 07:12:29;;;;;;;26.10;12.50;;;;;;;3.37;72.34;97115.18;106096;1274;95262;-79
2022/02/07 07:17:38;;;;;;;25.30;12.40;;;;;;;3.37;72.31;97124.25;106112;1274;95979;-79
2022/02/07 07:20:11;;;;;;;27.90;13.10;;;;;;;3.37;72.82;97130.39;106148;1276;98018;-79
2022/02/07 07:22:41;;;;;;;25.80;11.50;;;;;;;3.35;72.46;97130.00;106203;1274;111410;-76
2022/02/07 07:25:17;;;;;;;27.70;11.90;;;;;;;3.34;72.72;97130.27;106199;1274;96410;-78
2022/02/07 07:28:05;;;;;;;23.40;11.80;;;;;;;3.33;72.65;97130.86;106172;1274;107670;-75
2022/02/07 07:30:43;;;;;;;24.30;11.50;;;;;;;3.30;72.77;97128.48;106102;1275;97987;-79
2022/02/07 07:33:20;;;;;;;24.30;11.70;;;;;;;3.30;72.48;97130.41;106116;1274;95975;-78
2022/02/07 07:35:52;;;;;;;22.40;11.10;;;;;;;3.29;72.62;97132.21;106190;1274;111481;-77
2022/02/07 07:38:20;;;;;;;26.00;12.30;;;;;;;3.28;72.54;97137.36;106207;1274;97855;-75
2022/02/07 07:40:48;;;;;;;24.20;12.20;;;;;;;3.27;72.70;97135.31;106124;1274;107825;-77
2022/02/07 07:43:18;;;;;;;23.30;12.60;;;;;;;3.28;72.55;97138.59;106177;1274;97870;-79
2022/02/07 07:45:58;;;;;;;26.10;12.60;;;;;;;3.27;72.76;97147.74;106240;1274;97842;-78
2022/02/07 07:48:31;;;;;;;25.10;11.70;;;;;;;3.26;72.58;97141.41;106229;1274;110005;-78
2022/02/07 07:51:06;;;;;;;27.70;13.20;;;;;;;3.25;72.58;97143.54;106099;1275;97901;-77
2022/02/07 08:02:07;;;;;;;23.90;11.70;;;;;;;3.26;72.84;97162.20;106119;1274;111373;-75
2022/02/07 08:04:40;;;;;;;23.70;10.30;;;;;;;3.29;72.73;97166.70;106168;1274;97937;-75
2022/02/07 08:07:28;;;;;;;23.00;10.10;;;;;;;3.33;72.74;97172.94;106113;1274;107700;-75
2022/02/07 08:10:49;;;;;;;22.20;9.90;;;;;;;3.37;72.91;97175.76;106048;1274;97887;-73
2022/02/07 08:12:49;;;;;;;21.20;8.80;;;;;;;3.42;72.79;97175.95;106175;1275;97962;-76
2022/02/07 08:15:18;;;;;;;23.10;9.90;;;;;;;3.44;72.84;97172.64;106243;1274;112925;-76
2022/02/07 08:17:46;;;;;;;23.70;10.00;;;;;;;3.45;72.95;97168.35;106067;1274;97884;-76
2022/02/07 08:20:16;;;;;;;23.50;10.10;;;;;;;3.48;72.92;97164.95;106140;1274;107750;-76
2022/02/07 08:22:45;;;;;;;20.30;9.20;;;;;;;3.50;72.89;97159.34;106124;1274;97947;-76
2022/02/07 08:25:13;;;;;;;19.90;9.30;;;;;;;3.50;72.82;97159.17;106069;1274;97897;-76
2022/02/07 08:27:45;;;;;;;18.60;8.50;;;;;;;3.54;72.93;97155.26;106166;1274;112483;-74
2022/02/07 08:30:18;;;;;;;18.00;7.60;;;;;;;3.54;72.99;97151.88;106036;1276;95950;-76
2022/02/07 08:32:49;;;;;;;20.70;8.50;;;;;;;3.51;72.99;97143.02;106054;1275;107841;-76
2022/02/07 08:35:17;;;;;;;19.00;7.40;;;;;;;3.47;72.82;97150.02;106110;1274;97917;-77
2022/02/07 08:37:45;;;;;;;18.10;7.50;;;;;;;3.40;72.85;97162.93;106192;1274;97893;-76
2022/02/07 08:40:13;;;;;;;16.20;6.80;;;;;;;3.33;73.17;97164.52;106085;1275;111100;-76
2022/02/07 08:42:41;;;;;;;15.90;7.10;;;;;;;3.27;73.01;97175.08;106084;1274;97866;-77
2022/02/07 08:45:10;;;;;;;17.40;6.90;;;;;;;3.23;73.11;97198.17;106113;1274;107820;-77
2022/02/07 08:47:39;;;;;;;16.80;6.50;;;;;;;3.19;73.08;97213.21;106156;1274;97854;-77
2022/02/07 08:50:12;;;;;;;16.70;6.40;;;;;;;3.14;73.00;97216.48;106130;1274;98746;-78
2022/02/07 08:52:43;;;;;;;18.50;7.40;;;;;;;3.07;73.09;97233.06;106085;1274;111378;-78
2022/02/07 08:55:16;;;;;;;14.20;5.30;;;;;;;3.03;73.02;97239.02;106117;1274;97958;-76
2022/02/07 08:58:03;;;;;;;12.10;5.00;;;;;;;2.95;73.41;97261.61;106139;1274;107819;-75
2022/02/07 09:06:07;;;;;;;9.80;3.10;;;;;;;2.89;73.39;97292.84;106164;1274;111411;-76
2022/02/07 09:08:38;;;;;;;10.80;3.50;;;;;;;2.91;73.76;97308.66;106189;1274;97864;-75
2022/02/07 09:11:12;;;;;;;9.90;3.70;;;;;;;2.92;73.62;97318.71;106224;1274;107815;-77
2022/02/07 09:13:45;;;;;;;8.60;3.00;;;;;;;2.91;73.99;97326.66;106164;1274;97939;-79
2022/02/07 09:16:29;;;;;;;8.60;2.90;;;;;;;2.90;73.73;97331.64;106230;1274;97845;-74
2022/02/07 09:19:04;;;;;;;9.30;2.80;;;;;;;2.88;73.77;97334.04;106141;1274;111369;-75
2022/02/07 09:21:34;;;;;;;7.00;2.40;;;;;;;2.87;73.55;97334.16;106247;1274;97996;-75
2022/02/07 09:24:02;;;;;;;5.70;2.50;;;;;;;2.88;73.85;97345.64;106111;1274;107597;-75
2022/02/07 09:26:34;;;;;;;7.90;3.40;;;;;;;2.87;73.45;97349.52;106052;1277;98086;-74
2022/02/07 09:29:03;;;;;;;7.00;2.90;;;;;;;2.86;73.66;97358.52;106191;1274;97962;-76
2022/02/07 09:31:31;;;;;;;7.10;3.20;;;;;;;2.84;73.48;97372.48;106163;1274;111490;-77
2022/02/07 09:33:59;;;;;;;8.10;2.80;;;;;;;2.81;73.27;97381.45;106083;1274;98012;-80
2022/02/07 09:36:27;;;;;;;8.00;3.20;;;;;;;2.77;73.81;97381.17;106387;1274;107664;-78
2022/02/07 09:38:56;;;;;;;7.50;3.10;;;;;;;2.76;73.64;97385.14;106060;1275;97893;-75
2022/02/07 09:41:32;;;;;;;7.20;3.50;;;;;;;2.73;73.92;97386.20;106122;1274;95231;-76
2022/02/07 09:44:10;;;;;;;10.10;3.60;;;;;;;2.71;73.52;97387.41;106170;1274;112919;-75
2022/02/07 09:46:45;;;;;;;7.40;3.70;;;;;;;2.69;73.71;97383.13;106216;1274;99034;-75
2022/02/07 09:49:17;;;;;;;8.30;3.50;;;;;;;2.68;73.40;97394.22;106177;1274;107897;-75
2022/02/07 09:51:49;;;;;;;11.10;3.30;;;;;;;2.70;73.41;97402.67;106079;1276;95970;-75
2022/02/07 09:54:20;;;;;;;10.80;3.50;;;;;;;2.70;73.48;97405.14;106149;1274;97860;-72
2022/02/07 09:56:52;;;;;;;11.60;3.60;;;;;;;2.69;74.22;97407.14;105979;1274;111790;-74
2022/02/07 09:59:26;;;;;;;9.20;3.60;;;;;;;2.68;73.99;97408.56;106120;1274;97718;-75
2022/02/07 10:01:59;;;;;;;10.10;3.60;;;;;;;2.67;73.77;97413.38;106269;1274;109032;-75
2022/02/07 10:04:37;;;;;;;10.90;3.60;;;;;;;2.66;73.66;97420.41;106041;1276;97982;-76
2022/02/07 10:07:26;;;;;;;11.00;3.40;;;;;;;2.66;74.36;97416.75;106102;1274;98575;-75
2022/02/07 10:15:32;;;;;;;14.70;4.70;;;;;;;2.63;73.80;97439.02;105938;1274;105525;-74
2022/02/07 10:21:07;;;;;;;11.70;4.10;;;;;;;2.62;73.74;97444.34;106008;1274;97889;-76
2022/02/07 10:40:32;;;;;;;11.40;4.10;;;;;;;2.69;73.86;97444.75;105938;1274;97890;-78
2022/02/07 10:46:09;;;;;;;10.40;3.60;;;;;;;2.74;73.96;97450.58;106088;1274;96569;-75
2022/02/07 10:48:42;;;;;;;11.20;4.10;;;;;;;2.75;73.97;97454.68;106083;1273;97886;-77
2022/02/07 10:51:13;;;;;;;11.90;4.60;;;;;;;2.77;73.94;97458.23;106040;1275;111503;-76
2022/02/07 10:53:50;;;;;;;11.00;4.50;;;;;;;2.79;73.82;97460.54;106091;1274;97726;-76
2022/02/07 10:56:31;;;;;;;12.60;4.20;;;;;;;2.80;73.60;97455.05;106006;1274;107736;-77
2022/02/07 10:59:01;;;;;;;10.90;3.90;;;;;;;2.82;73.82;97459.10;105932;1277;98587;-74
2022/02/07 11:04:19;;;;;;;8.50;3.80;;;;;;;2.91;74.00;97456.56;105999;1274;111340;-77
2022/02/07 11:06:51;;;;;;;11.40;3.80;;;;;;;2.92;73.69;97456.88;106034;1274;97887;-76
2022/02/07 11:09:35;;;;;;;8.60;3.40;;;;;;;2.92;73.63;97457.92;105990;1274;107773;-75
2022/02/07 11:12:44;;;;;;;11.50;3.60;;;;;;;2.93;73.71;97461.02;105900;1276;97955;-76
2022/02/07 11:15:40;;;;;;;10.20;3.60;;;;;;;2.97;73.54;97461.59;106014;1274;97858;-76
2022/02/07 11:18:11;;;;;;;12.20;4.20;;;;;;;3.06;73.84;97467.98;106081;1274;111413;-78
2022/02/07 11:23:24;;;;;;;7.70;3.30;;;;;;;3.17;73.85;97473.61;106070;1274;107700;-78
2022/02/07 11:26:00;;;;;;;10.00;3.80;;;;;;;3.21;73.64;97468.98;105938;1274;97882;-75
2022/02/07 11:28:43;;;;;;;10.30;3.70;;;;;;;3.24;73.56;97470.69;106095;1274;95282;-78
2022/02/07 11:31:12;;;;;;;7.10;3.10;;;;;;;3.25;73.76;97479.54;105981;1274;111430;-80
2022/02/07 11:36:35;;;;;;;9.80;3.50;;;;;;;3.24;73.69;97487.66;106087;1274;107769;-79
2022/02/07 11:39:20;;;;;;;9.00;3.40;;;;;;;3.24;73.71;97491.15;106080;1274;97861;-79
2022/02/07 11:41:53;;;;;;;7.80;3.20;;;;;;;3.25;73.63;97498.13;106053;1274;97818;-78
2022/02/07 11:44:33;;;;;;;10.10;3.30;;;;;;;3.26;73.34;97496.62;106073;1274;112175;-79
2022/02/07 11:47:31;;;;;;;9.40;3.00;;;;;;;3.27;73.40;97497.92;105970;1277;98610;-79
2022/02/07 11:50:08;;;;;;;9.10;3.50;;;;;;;3.25;73.24;97504.61;105937;1274;107852;-78
2022/02/07 11:52:47;;;;;;;7.20;3.20;;;;;;;3.28;73.63;97508.41;106009;1274;95346;-79
2022/02/07 11:55:23;;;;;;;7.00;3.20;;;;;;;3.31;73.48;97509.96;106094;1274;97886;-77
2022/02/07 11:58:01;;;;;;;7.90;3.00;;;;;;;3.32;72.96;97513.95;106085;1274;111229;-78
2022/02/07 12:00:32;;;;;;;4.70;2.60;;;;;;;3.33;72.76;97523.70;106014;1274;97876;-76
2022/02/07 12:03:06;;;;;;;6.80;3.00;;;;;;;3.29;73.13;97514.79;106015;1274;107662;-80
2022/02/07 12:05:43;;;;;;;10.10;3.40;;;;;;;3.26;73.00;97520.96;105952;1274;97885;-77
2022/02/07 12:08:17;;;;;;;12.80;4.10;;;;;;;3.24;72.88;97523.04;106052;1274;97947;-75
2022/02/07 12:11:05;;;;;;;11.20;4.00;;;;;;;3.24;72.93;97529.36;105995;1274;111383;-77
2022/02/07 12:13:42;;;;;;;8.80;3.10;;;;;;;3.27;72.75;97554.23;106072;1274;97840;-77
2022/02/07 12:16:23;;;;;;;8.50;3.30;;;;;;;3.27;72.95;97558.25;105937;1274;107701;-75
2022/02/07 12:18:57;;;;;;;8.40;3.20;;;;;;;3.24;72.91;97560.89;106058;1274;97864;-77
2022/02/07 12:21:26;;;;;;;;;;;;;;;3.18;72.58;97558.46;106099;1274;95969;-75
2022/02/07 12:23:58;;;;;;;9.40;3.40;;;;;;;3.13;72.86;97565.64;106047;1274;111409;-79
2022/02/07 12:26:29;;;;;;;9.80;3.70;;;;;;;3.13;73.09;97568.98;106063;1274;97835;-76
2022/02/07 12:28:59;;;;;;;9.20;3.70;;;;;;;3.12;73.02;97573.05;106029;1274;107452;-75
2022/02/07 12:31:29;;;;;;;9.70;3.40;;;;;;;3.11;73.19;97578.70;106026;1274;97975;-76
2022/02/07 12:34:02;;;;;;;11.80;3.40;;;;;;;3.11;73.01;97585.18;106077;1274;97870;-78
2022/02/07 12:36:36;;;;;;;9.50;3.40;;;;;;;3.12;73.07;97598.62;105894;1276;111469;-78
2022/02/07 12:39:08;;;;;;;16.70;4.70;;;;;;;3.09;72.93;97612.33;106067;1274;97955;-77
2022/02/07 12:41:37;;;;;;;14.70;5.00;;;;;;;3.00;72.80;97628.47;105997;1274;107793;-78
2022/02/07 12:44:07;;;;;;;12.80;4.40;;;;;;;2.89;72.80;97655.09;106027;1274;97952;-76
2022/02/07 12:46:41;;;;;;;4.50;2.30;;;;;;;2.76;73.02;97660.30;106076;1274;97851;-81
2022/02/07 12:49:12;;;;;;;9.30;2.80;;;;;;;2.60;72.77;97659.52;106047;1274;111379;-79
2022/02/07 12:51:46;;;;;;;10.50;3.80;;;;;;;2.51;73.00;97661.16;105935;1276;97941;-74
2022/02/07 12:54:19;;;;;;;10.40;3.60;;;;;;;2.46;72.87;97653.38;106045;1274;107844;-77
2022/02/07 12:56:48;;;;;;;10.70;3.50;;;;;;;2.42;73.16;97656.80;106008;1274;97969;-73
2022/02/07 12:59:17;;;;;;;9.00;3.20;;;;;;;2.43;72.95;97656.40;106019;1274;96082;-74
2022/02/07 13:01:46;;;;;;;10.30;3.40;;;;;;;2.47;73.43;97651.80;106046;1274;111135;-74
2022/02/07 13:04:20;;;;;;;8.50;3.40;;;;;;;2.52;73.03;97658.29;106083;1274;99041;-72
2022/02/07 13:06:51;;;;;;;12.30;3.50;;;;;;;2.57;73.26;97662.02;105987;1274;107848;-73
2022/02/07 13:09:30;;;;;;;6.50;2.80;;;;;;;2.60;72.97;97667.45;105988;1274;98405;-75
2022/02/07 13:12:04;;;;;;;6.10;2.40;;;;;;;2.64;73.03;97661.92;106034;1274;95282;-75
2022/02/07 13:14:40;;;;;;;8.60;2.70;;;;;;;2.68;73.06;97679.36;105965;1274;111395;-75
2022/02/07 13:17:10;;;;;;;6.20;2.60;;;;;;;2.72;72.94;97685.93;105996;1274;95207;-74
2022/02/07 13:19:41;;;;;;;5.30;2.30;;;;;;;2.71;72.75;97692.28;106078;1274;107744;-75
2022/02/07 13:22:13;;;;;;;5.20;2.40;;;;;;;2.67;72.63;97695.30;106087;1274;98528;-74
2022/02/07 13:24:41;;;;;;;7.70;2.80;;;;;;;2.63;72.85;97702.92;106058;1274;98045;-73
2022/02/07 13:27:15;;;;;;;8.60;3.50;;;;;;;2.63;72.81;97712.77;105951;1274;111411;-73
2022/02/07 13:29:51;;;;;;;6.70;2.60;;;;;;;2.63;72.93;97712.06;105949;1275;97895;-74
2022/02/07 13:32:23;;;;;;;8.20;2.50;;;;;;;2.58;72.68;97716.72;105976;1274;107667;-74
2022/02/07 13:35:03;;;;;;;7.70;2.70;;;;;;;2.54;73.20;97721.02;105888;1275;97895;-71
2022/02/07 13:37:33;;;;;;;10.50;3.20;;;;;;;2.49;72.49;97726.73;105980;1274;97762;-73
2022/02/07 13:40:13;;;;;;;8.90;3.30;;;;;;;2.43;72.74;97746.50;105996;1274;111429;-75
2022/02/07 13:42:48;;;;;;;8.50;3.20;;;;;;;2.37;72.66;97749.45;106049;1277;97940;-75
2022/02/07 13:45:17;;;;;;;9.90;3.40;;;;;;;2.35;72.81;97751.55;105916;1277;107833;-77
2022/02/07 13:47:50;;;;;;;11.00;3.60;;;;;;;2.38;72.80;97766.92;106029;1274;96105;-75
2022/02/07 13:50:22;;;;;;;13.80;3.90;;;;;;;2.39;72.97;97769.48;106059;1274;97960;-77
2022/02/07 13:52:54;;;;;;;7.80;2.80;;;;;;;2.39;72.84;97779.14;105955;1276;111002;-75
2022/02/07 13:55:22;;;;;;;12.50;4.30;;;;;;;2.33;72.79;97785.05;105912;1274;98008;-76
2022/02/07 13:57:53;;;;;;;10.00;3.70;;;;;;;2.27;72.62;97786.11;106004;1274;107807;-72
2022/02/07 14:00:25;;;;;;;7.30;3.20;;;;;;;2.22;72.54;97803.92;105998;1274;95935;-73
2022/02/07 14:03:12;;;;;;;7.10;2.90;;;;;;;2.16;72.90;97803.35;106009;1274;97862;-69
2022/02/07 14:05:49;;;;;;;13.20;4.80;;;;;;;2.08;73.01;97817.27;105936;1274;111250;-70
2022/02/07 14:08:37;;;;;;;9.00;3.60;;;;;;;2.02;72.78;97819.39;106138;1274;97980;-75
2022/02/07 14:11:11;;;;;;;14.00;5.00;;;;;;;1.91;72.67;97823.34;105859;1274;107695;-74
2022/02/07 14:13:44;;;;;;;14.30;4.80;;;;;;;1.78;72.90;97830.54;105964;1274;97902;-74
2022/02/07 14:16:14;;;;;;;14.90;4.70;;;;;;;1.67;72.65;97837.12;105974;1274;97963;-74
2022/02/07 14:18:46;;;;;;;16.10;6.20;;;;;;;1.60;72.63;97843.92;106078;1274;112343;-74
2022/02/07 14:21:17;;;;;;;16.10;6.00;;;;;;;1.56;72.75;97848.02;106125;1271;97842;-71
2022/02/07 14:23:48;;;;;;;21.30;6.70;;;;;;;1.52;72.78;97853.16;105931;1275;107901;-75